Time;durP1;ratioP1;P1;durP2;ratioP2;P2;SDS_P1;SDS_P2;PMS_P1;PMS_P2;Temp;Humidity;BMP_temperature;BMP_pressure;BME280_temperature;BME280_humidity;BME280_pressure;Samples;Min_cycle;Max_cycle;Signal;HPM_P1;HPM_P2
2022/07/08 00:01:27;;;;;;;2.38;0.70;;;;;;;;;;5100408;28;20024;-76
2022/07/08 00:03:53;;;;;;;3.58;0.70;;;;;;;;;;5104178;28;20049;-76
2022/07/08 00:06:19;;;;;;;1.63;0.55;;;;;;;;;;5103753;28;20036;-76
2022/07/08 00:08:45;;;;;;;1.60;0.70;;;;;;;;;;5076736;28;20040;-76
2022/07/08 00:11:12;;;;;;;3.17;0.60;;;;;;;;;;5100114;28;20098;-76
2022/07/08 00:13:38;;;;;;;2.15;0.50;;;;;;;;;;5107512;28;20502;-76
2022/07/08 00:16:04;;;;;;;3.40;0.60;;;;;;;;;;5097153;28;20111;-76
2022/07/08 00:18:30;;;;;;;3.85;1.00;;;;;;;;;;5097456;28;20023;-76
2022/07/08 00:20:56;;;;;;;3.67;0.77;;;;;;;;;;5098061;28;20053;-76
2022/07/08 00:23:22;;;;;;;3.53;0.47;;;;;;;;;;5099611;28;21839;-76
2022/07/08 00:25:48;;;;;;;3.20;0.60;;;;;;;;;;5096827;28;20031;-76
2022/07/08 00:28:14;;;;;;;1.92;0.40;;;;;;;;;;5092520;28;20161;-76
2022/07/08 00:30:40;;;;;;;3.08;0.60;;;;;;;;;;5097918;28;20081;-76
2022/07/08 00:33:06;;;;;;;3.63;0.70;;;;;;;;;;5101548;28;20035;-76
2022/07/08 00:35:32;;;;;;;2.72;0.60;;;;;;;;;;5106907;28;20028;-76
2022/07/08 00:37:58;;;;;;;2.58;0.60;;;;;;;;;;5097975;28;20034;-76
2022/07/08 00:40:24;;;;;;;3.83;0.80;;;;;;;;;;5101286;27;20031;-75
2022/07/08 00:42:50;;;;;;;1.30;0.50;;;;;;;;;;5114162;27;20057;-76
2022/07/08 00:45:17;;;;;;;7.13;0.50;;;;;;;;;;5103369;28;20476;-76
2022/07/08 00:47:43;;;;;;;3.85;0.65;;;;;;;;;;5107852;27;20146;-76
2022/07/08 00:50:10;;;;;;;2.85;0.77;;;;;;;;;;5099348;28;20038;-76
2022/07/08 00:52:36;;;;;;;2.85;0.73;;;;;;;;;;5110584;27;20036;-76
2022/07/08 00:55:03;;;;;;;8.90;1.05;;;;;;;;;;5102036;28;20027;-76
2022/07/08 00:57:29;;;;;;;4.43;0.70;;;;;;;;;;5097601;28;20489;-76
2022/07/08 00:59:56;;;;;;;2.10;0.60;;;;;;;;;;5097863;28;20047;-76
2022/07/08 01:02:22;;;;;;;4.32;0.80;;;;;;;;;;5101555;28;20176;-76
2022/07/08 01:04:48;;;;;;;3.55;0.73;;;;;;;;;;5111227;27;20571;-76
2022/07/08 01:07:14;;;;;;;2.22;0.52;;;;;;;;;;5104072;27;20386;-76
2022/07/08 01:09:40;;;;;;;1.85;0.60;;;;;;;;;;5103296;27;20035;-76
2022/07/08 01:12:06;;;;;;;2.67;0.57;;;;;;;;;;5105777;28;20028;-75
2022/07/08 01:14:32;;;;;;;1.20;0.43;;;;;;;;;;5094534;27;20598;-75
2022/07/08 01:16:58;;;;;;;1.92;0.65;;;;;;;;;;5105582;27;20509;-75
2022/07/08 01:19:24;;;;;;;3.88;0.70;;;;;;;;;;5111164;27;20059;-76
2022/07/08 01:21:50;;;;;;;4.93;0.60;;;;;;;;;;5105393;27;20028;-76
2022/07/08 01:24:17;;;;;;;2.45;0.63;;;;;;;;;;5107880;27;20040;-76
2022/07/08 01:26:43;;;;;;;2.97;0.80;;;;;;;;;;5099413;28;20024;-76
2022/07/08 01:29:09;;;;;;;5.90;1.10;;;;;;;;;;5105166;27;20036;-76
2022/07/08 01:31:35;;;;;;;1.83;0.70;;;;;;;;;;5107574;27;20386;-76
2022/07/08 01:34:01;;;;;;;3.50;0.90;;;;;;;;;;5102236;27;20063;-76
2022/07/08 01:36:27;;;;;;;1.88;0.60;;;;;;;;;;5106088;27;20032;-76
2022/07/08 01:38:53;;;;;;;3.83;0.90;;;;;;;;;;5103427;27;20036;-76
2022/07/08 01:41:19;;;;;;;2.50;0.60;;;;;;;;;;5106046;27;20075;-76
2022/07/08 01:43:45;;;;;;;3.55;0.90;;;;;;;;;;5101316;27;20036;-76
2022/07/08 01:46:11;;;;;;;1.67;0.60;;;;;;;;;;5099646;27;20461;-76
2022/07/08 01:48:37;;;;;;;2.13;0.70;;;;;;;;;;5099677;28;20382;-76
2022/07/08 01:51:03;;;;;;;2.67;0.75;;;;;;;;;;5102073;27;20182;-76
2022/07/08 01:53:29;;;;;;;2.97;0.60;;;;;;;;;;5100065;28;20165;-76
2022/07/08 01:55:55;;;;;;;3.95;0.73;;;;;;;;;;5092830;28;20024;-76
2022/07/08 01:58:21;;;;;;;4.03;0.75;;;;;;;;;;5109293;27;20054;-76
2022/07/08 02:00:48;;;;;;;2.33;0.60;;;;;;;;;;5097249;27;20031;-75
2022/07/08 02:03:14;;;;;;;3.35;0.80;;;;;;;;;;5108291;27;20059;-76
2022/07/08 02:05:40;;;;;;;4.78;1.30;;;;;;;;;;5100632;27;20355;-76
2022/07/08 02:08:06;;;;;;;7.82;1.30;;;;;;;;;;5100615;28;20046;-75
2022/07/08 02:12:18;;;;;;;5.68;1.33;;;;;;;;;;5098464;28;20023;-76
2022/07/08 02:13:18;;;;;;;2.97;0.80;;;;;;;;;;5095245;28;20088;-76
2022/07/08 02:15:45;;;;;;;4.95;1.00;;;;;;;;;;5097022;28;20024;-76
2022/07/08 02:18:11;;;;;;;4.63;1.10;;;;;;;;;;5102447;28;20528;-76
2022/07/08 02:20:37;;;;;;;5.55;1.70;;;;;;;;;;5103686;27;20093;-76
2022/07/08 02:23:03;;;;;;;6.93;1.70;;;;;;;;;;5099304;28;20096;-76
2022/07/08 02:25:29;;;;;;;6.10;1.40;;;;;;;;;;5100802;27;20036;-76
2022/07/08 02:27:55;;;;;;;5.70;1.30;;;;;;;;;;5105102;28;20126;-76
2022/07/08 02:30:21;;;;;;;5.32;1.27;;;;;;;;;;5101328;28;20174;-75
2022/07/08 02:32:47;;;;;;;4.20;1.38;;;;;;;;;;5097505;27;20043;-76
2022/07/08 02:35:13;;;;;;;5.05;1.38;;;;;;;;;;5095212;28;20084;-76
2022/07/08 02:37:39;;;;;;;5.10;1.35;;;;;;;;;;5097086;28;20074;-75
2022/07/08 02:40:05;;;;;;;4.53;1.48;;;;;;;;;;5107616;27;20020;-76
2022/07/08 02:42:31;;;;;;;5.05;1.30;;;;;;;;;;5104779;27;20035;-76
2022/07/08 02:44:57;;;;;;;5.72;1.10;;;;;;;;;;5097565;28;20069;-76
2022/07/08 02:47:23;;;;;;;4.65;1.20;;;;;;;;;;5096805;27;20058;-75
2022/07/08 02:49:49;;;;;;;4.88;1.25;;;;;;;;;;5098170;27;20056;-75
2022/07/08 02:52:15;;;;;;;5.25;0.82;;;;;;;;;;5101545;28;20036;-75
2022/07/08 02:54:41;;;;;;;3.00;0.80;;;;;;;;;;5094064;27;20032;-75
2022/07/08 02:57:07;;;;;;;3.33;0.90;;;;;;;;;;5096270;28;20032;-75
2022/07/08 02:59:33;;;;;;;2.65;0.77;;;;;;;;;;5092488;27;20028;-76
2022/07/08 03:01:59;;;;;;;2.90;0.80;;;;;;;;;;5100358;28;22050;-76
2022/07/08 03:04:25;;;;;;;3.30;0.80;;;;;;;;;;5099314;28;20032;-76
2022/07/08 03:06:51;;;;;;;3.97;0.80;;;;;;;;;;5098459;28;20040;-76
2022/07/08 03:09:17;;;;;;;5.65;0.80;;;;;;;;;;5098326;27;20057;-76
2022/07/08 03:11:43;;;;;;;3.60;0.80;;;;;;;;;;5095509;28;20447;-76
2022/07/08 03:14:09;;;;;;;3.13;0.77;;;;;;;;;;5097347;27;20040;-75
2022/07/08 03:16:35;;;;;;;5.22;0.93;;;;;;;;;;5104326;28;20093;-75
2022/07/08 03:19:02;;;;;;;3.28;0.80;;;;;;;;;;5096697;28;20040;-75
2022/07/08 03:21:28;;;;;;;1.95;0.70;;;;;;;;;;5094177;28;20024;-76
2022/07/08 03:23:54;;;;;;;3.22;0.85;;;;;;;;;;5098503;28;20051;-76
2022/07/08 03:26:20;;;;;;;5.72;0.80;;;;;;;;;;5097318;28;20036;-75
2022/07/08 03:28:46;;;;;;;2.97;0.95;;;;;;;;;;5100192;28;20371;-76
2022/07/08 03:31:12;;;;;;;2.95;0.98;;;;;;;;;;5093706;27;20030;-75
2022/07/08 03:33:38;;;;;;;4.03;0.73;;;;;;;;;;5096309;28;20040;-76
2022/07/08 03:36:06;;;;;;;2.53;0.70;;;;;;;;;;5103736;28;20404;-76
2022/07/08 03:38:32;;;;;;;4.07;0.50;;;;;;;;;;5106841;28;20952;-76
2022/07/08 03:43:43;;;;;;;2.90;0.70;;;;;;;;;;5100887;28;20113;-75
2022/07/08 03:46:09;;;;;;;0.80;0.50;;;;;;;;;;5101822;28;20610;-75
2022/07/08 03:48:35;;;;;;;2.92;0.70;;;;;;;;;;5094571;28;20036;-76
2022/07/08 03:51:01;;;;;;;3.00;0.60;;;;;;;;;;5095496;28;20028;-76
2022/07/08 03:53:27;;;;;;;4.18;0.60;;;;;;;;;;5098664;28;20041;-76
2022/07/08 03:55:54;;;;;;;2.67;0.50;;;;;;;;;;5095639;28;20402;-76
2022/07/08 03:58:20;;;;;;;2.22;0.70;;;;;;;;;;5098717;28;20035;-76
2022/07/08 04:00:46;;;;;;;2.50;0.80;;;;;;;;;;5100827;28;20120;-76
2022/07/08 04:03:12;;;;;;;2.60;0.52;;;;;;;;;;5105633;28;20058;-76
2022/07/08 04:05:38;;;;;;;3.25;0.70;;;;;;;;;;5098626;28;20100;-76
2022/07/08 04:08:05;;;;;;;4.85;0.80;;;;;;;;;;5110374;28;20469;-76
2022/07/08 04:10:31;;;;;;;3.63;0.80;;;;;;;;;;5095504;28;20054;-76
2022/07/08 04:12:57;;;;;;;2.97;0.88;;;;;;;;;;5098366;28;20071;-75
2022/07/08 04:15:23;;;;;;;2.47;0.70;;;;;;;;;;5106977;27;20055;-76
2022/07/08 04:17:49;;;;;;;2.45;0.80;;;;;;;;;;5107913;27;20055;-76
2022/07/08 04:20:15;;;;;;;1.90;0.70;;;;;;;;;;5110319;27;20024;-76
2022/07/08 04:22:41;;;;;;;3.78;0.68;;;;;;;;;;5102135;28;20031;-76
2022/07/08 04:25:08;;;;;;;2.13;0.80;;;;;;;;;;5106848;27;20032;-75
2022/07/08 04:27:34;;;;;;;6.15;1.23;;;;;;;;;;5104482;27;20047;-76
2022/07/08 04:30:00;;;;;;;9.93;2.75;;;;;;;;;;5103829;28;20102;-76
2022/07/08 04:32:26;;;;;;;8.40;1.65;;;;;;;;;;5107243;27;20217;-76
2022/07/08 04:34:52;;;;;;;5.50;1.35;;;;;;;;;;5112436;27;20750;-76
2022/07/08 04:37:18;;;;;;;6.18;1.63;;;;;;;;;;5106715;27;20042;-76
2022/07/08 04:39:44;;;;;;;5.32;1.00;;;;;;;;;;5099593;28;20039;-75
2022/07/08 04:42:11;;;;;;;7.13;0.85;;;;;;;;;;5098962;28;20887;-76
2022/07/08 04:44:37;;;;;;;2.63;0.75;;;;;;;;;;5102536;28;20046;-76
2022/07/08 04:47:03;;;;;;;5.63;0.98;;;;;;;;;;5101422;27;20039;-75
2022/07/08 04:49:29;;;;;;;3.28;0.77;;;;;;;;;;5112267;27;20035;-76
2022/07/08 04:51:55;;;;;;;3.72;0.98;;;;;;;;;;5101876;27;20467;-76
2022/07/08 04:54:21;;;;;;;2.63;0.70;;;;;;;;;;5102601;28;20071;-76
2022/07/08 04:56:47;;;;;;;3.80;0.90;;;;;;;;;;5097190;28;20047;-76
2022/07/08 04:59:13;;;;;;;3.22;0.82;;;;;;;;;;5096296;28;20483;-76
2022/07/08 05:01:39;;;;;;;5.40;1.00;;;;;;;;;;5105167;28;20032;-76
2022/07/08 05:04:05;;;;;;;4.13;1.00;;;;;;;;;;5101638;27;20080;-75
2022/07/08 05:06:32;;;;;;;5.18;1.17;;;;;;;;;;5102735;27;20036;-76
2022/07/08 05:08:58;;;;;;;5.13;0.70;;;;;;;;;;5101821;28;20024;-76
2022/07/08 05:11:24;;;;;;;3.83;0.90;;;;;;;;;;5098514;28;20074;-75
2022/07/08 05:13:50;;;;;;;9.18;0.80;;;;;;;;;;5106023;27;20067;-76
2022/07/08 05:16:16;;;;;;;5.40;0.90;;;;;;;;;;5103478;28;20052;-76
2022/07/08 05:18:42;;;;;;;4.68;1.10;;;;;;;;;;5097094;27;20054;-76
2022/07/08 05:21:08;;;;;;;4.18;1.00;;;;;;;;;;5095626;28;20106;-75
2022/07/08 05:23:34;;;;;;;6.78;1.00;;;;;;;;;;5093871;28;20044;-76
2022/07/08 05:26:00;;;;;;;8.68;1.85;;;;;;;;;;5111490;27;20035;-76
2022/07/08 05:28:26;;;;;;;2.50;1.00;;;;;;;;;;5097341;28;20114;-76
2022/07/08 05:30:52;;;;;;;4.95;1.20;;;;;;;;;;5091860;28;20777;-76
2022/07/08 05:33:18;;;;;;;4.65;1.30;;;;;;;;;;5089951;27;20042;-76
2022/07/08 05:35:44;;;;;;;4.30;1.27;;;;;;;;;;5100140;28;20108;-76
2022/07/08 05:38:11;;;;;;;3.42;1.20;;;;;;;;;;5102448;27;20687;-76
2022/07/08 05:40:37;;;;;;;3.92;1.30;;;;;;;;;;5094459;28;20097;-76
2022/07/08 05:43:04;;;;;;;6.65;1.48;;;;;;;;;;5097607;28;20864;-76
2022/07/08 05:45:30;;;;;;;4.63;1.48;;;;;;;;;;5102717;27;20031;-76
2022/07/08 05:47:56;;;;;;;3.10;1.05;;;;;;;;;;5105317;27;20070;-76
2022/07/08 05:50:22;;;;;;;7.05;1.73;;;;;;;;;;5103936;27;20142;-76
2022/07/08 05:52:48;;;;;;;9.63;2.38;;;;;;;;;;5102198;27;20367;-76
2022/07/08 05:55:14;;;;;;;9.02;1.55;;;;;;;;;;5103516;27;20028;-76
2022/07/08 05:57:40;;;;;;;4.40;1.73;;;;;;;;;;5102667;27;20031;-76
2022/07/08 06:00:06;;;;;;;6.40;1.58;;;;;;;;;;5097398;28;20023;-76
2022/07/08 06:02:32;;;;;;;4.30;1.40;;;;;;;;;;5104877;27;20106;-75
2022/07/08 06:04:58;;;;;;;10.38;1.95;;;;;;;;;;5095199;28;20488;-76
2022/07/08 06:07:24;;;;;;;6.95;2.47;;;;;;;;;;5097944;28;20571;-76
2022/07/08 06:09:50;;;;;;;7.13;1.83;;;;;;;;;;5097117;28;20031;-76
2022/07/08 06:12:16;;;;;;;9.18;2.25;;;;;;;;;;5106806;27;20027;-76
2022/07/08 06:14:42;;;;;;;9.10;1.98;;;;;;;;;;5097405;28;20043;-76
2022/07/08 06:17:08;;;;;;;6.15;1.48;;;;;;;;;;5101155;27;20044;-76
2022/07/08 06:19:34;;;;;;;7.15;1.60;;;;;;;;;;5100390;27;20043;-76
2022/07/08 06:22:01;;;;;;;3.80;1.40;;;;;;;;;;5095649;28;20027;-76
2022/07/08 06:24:27;;;;;;;7.65;1.42;;;;;;;;;;5096640;28;20047;-76
2022/07/08 06:26:53;;;;;;;6.70;1.60;;;;;;;;;;5098761;27;20443;-76
2022/07/08 06:29:19;;;;;;;7.00;2.60;;;;;;;;;;5101105;27;20051;-76
2022/07/08 06:31:45;;;;;;;7.85;2.53;;;;;;;;;;5103999;27;20480;-76
2022/07/08 06:34:12;;;;;;;5.30;2.20;;;;;;;;;;5097489;27;20036;-76
2022/07/08 06:36:38;;;;;;;7.57;2.42;;;;;;;;;;5108838;27;20023;-76
2022/07/08 06:39:04;;;;;;;5.78;1.10;;;;;;;;;;5097939;27;20852;-76
2022/07/08 06:41:30;;;;;;;2.72;1.27;;;;;;;;;;5099911;28;20107;-76
2022/07/08 06:43:56;;;;;;;4.50;1.23;;;;;;;;;;5096112;28;20108;-76
2022/07/08 06:46:22;;;;;;;4.32;1.00;;;;;;;;;;5096717;27;20031;-76
2022/07/08 06:48:48;;;;;;;3.13;0.80;;;;;;;;;;5098569;28;20676;-76
2022/07/08 06:51:14;;;;;;;3.75;0.70;;;;;;;;;;5092452;27;20060;-76
2022/07/08 06:56:25;;;;;;;2.03;0.80;;;;;;;;;;5098194;27;20034;-76
2022/07/08 06:58:51;;;;;;;3.15;1.05;;;;;;;;;;5101659;28;20565;-76
2022/07/08 07:01:17;;;;;;;3.28;1.15;;;;;;;;;;5099239;28;20031;-76
2022/07/08 07:03:43;;;;;;;4.10;1.00;;;;;;;;;;5101621;27;20117;-76
2022/07/08 07:06:09;;;;;;;3.17;1.05;;;;;;;;;;5097697;27;20103;-76
2022/07/08 07:08:36;;;;;;;5.68;1.17;;;;;;;;;;5099781;27;20034;-76
2022/07/08 07:11:02;;;;;;;5.85;1.00;;;;;;;;;;5102867;27;20031;-76
2022/07/08 07:13:28;;;;;;;7.80;1.30;;;;;;;;;;5095129;27;20077;-76
2022/07/08 07:15:54;;;;;;;5.40;1.10;;;;;;;;;;5095770;28;20024;-76
2022/07/08 07:18:20;;;;;;;8.10;1.40;;;;;;;;;;5098090;28;20123;-76
2022/07/08 07:20:46;;;;;;;3.45;1.15;;;;;;;;;;5097827;28;20067;-76
2022/07/08 07:23:12;;;;;;;4.55;1.50;;;;;;;;;;5097582;27;20440;-76
2022/07/08 07:25:38;;;;;;;5.13;1.23;;;;;;;;;;5101008;28;20126;-76
2022/07/08 07:28:04;;;;;;;4.38;1.13;;;;;;;;;;5098545;28;20039;-76
2022/07/08 07:30:30;;;;;;;2.50;0.93;;;;;;;;;;5102541;27;20032;-76
2022/07/08 07:32:56;;;;;;;3.75;1.23;;;;;;;;;;5096775;28;20109;-76
2022/07/08 07:35:22;;;;;;;5.18;1.13;;;;;;;;;;5098120;28;20027;-76
2022/07/08 07:37:48;;;;;;;5.35;1.20;;;;;;;;;;5099460;28;20418;-76
2022/07/08 07:40:14;;;;;;;5.65;1.02;;;;;;;;;;5098995;28;20072;-76
2022/07/08 07:42:40;;;;;;;5.05;1.35;;;;;;;;;;5096748;28;20134;-76
2022/07/08 07:45:07;;;;;;;9.65;1.75;;;;;;;;;;5098193;28;20482;-76
2022/07/08 07:47:33;;;;;;;4.57;1.10;;;;;;;;;;5098130;28;20045;-76
2022/07/08 07:49:59;;;;;;;3.40;1.00;;;;;;;;;;5097109;28;20913;-76
2022/07/08 07:52:25;;;;;;;2.08;0.90;;;;;;;;;;5099502;28;20498;-76
2022/07/08 07:54:51;;;;;;;4.75;1.00;;;;;;;;;;5098086;28;20023;-76
2022/07/08 07:57:17;;;;;;;5.10;0.90;;;;;;;;;;5098245;28;20030;-76
2022/07/08 07:59:45;;;;;;;5.30;1.02;;;;;;;;;;5098393;28;20034;-76
2022/07/08 08:02:11;;;;;;;5.63;1.30;;;;;;;;;;5096657;28;20039;-76
2022/07/08 08:04:37;;;;;;;5.60;1.00;;;;;;;;;;5102346;28;20031;-76
2022/07/08 08:07:03;;;;;;;3.95;1.00;;;;;;;;;;5096446;28;20054;-76
2022/07/08 08:09:29;;;;;;;5.30;1.30;;;;;;;;;;5095232;28;20076;-76
2022/07/08 08:11:55;;;;;;;6.78;1.40;;;;;;;;;;5095507;28;20027;-76
2022/07/08 08:14:21;;;;;;;5.25;1.17;;;;;;;;;;5095368;28;20036;-76
2022/07/08 08:16:47;;;;;;;4.38;0.90;;;;;;;;;;5097982;28;20689;-76
2022/07/08 08:19:13;;;;;;;5.75;1.20;;;;;;;;;;5097361;28;20053;-76
2022/07/08 08:21:39;;;;;;;2.38;0.80;;;;;;;;;;5100366;28;20028;-76
2022/07/08 08:24:05;;;;;;;5.53;1.00;;;;;;;;;;5099307;28;20027;-76
2022/07/08 08:26:31;;;;;;;6.30;1.08;;;;;;;;;;5092580;28;20768;-76
2022/07/08 08:28:58;;;;;;;5.07;0.95;;;;;;;;;;5100618;28;20371;-76
2022/07/08 08:31:24;;;;;;;3.28;0.90;;;;;;;;;;5097162;28;20085;-76
2022/07/08 08:33:50;;;;;;;3.28;0.70;;;;;;;;;;5094361;28;20028;-76
2022/07/08 08:36:16;;;;;;;2.80;0.80;;;;;;;;;;5095810;28;20032;-76
2022/07/08 08:38:42;;;;;;;2.40;0.77;;;;;;;;;;5099204;28;20028;-76
2022/07/08 08:41:09;;;;;;;3.17;0.70;;;;;;;;;;5096734;28;20073;-76
2022/07/08 08:43:35;;;;;;;3.88;0.80;;;;;;;;;;5093998;28;20059;-76
2022/07/08 08:46:02;;;;;;;5.15;0.82;;;;;;;;;;5096525;28;20028;-76
2022/07/08 08:48:31;;;;;;;4.50;0.82;;;;;;;;;;5097487;28;20050;-76
2022/07/08 08:50:58;;;;;;;4.90;0.80;;;;;;;;;;5093592;28;20534;-76
2022/07/08 08:53:25;;;;;;;4.97;1.05;;;;;;;;;;5096046;28;20067;-76
2022/07/08 08:55:52;;;;;;;6.15;0.70;;;;;;;;;;5100975;28;20024;-77
2022/07/08 08:58:18;;;;;;;6.53;0.93;;;;;;;;;;5093479;28;20050;-76
2022/07/08 09:00:44;;;;;;;3.10;0.93;;;;;;;;;;5102229;28;20057;-76
2022/07/08 09:03:10;;;;;;;4.18;0.70;;;;;;;;;;5101518;27;21240;-76
2022/07/08 09:05:36;;;;;;;3.85;0.70;;;;;;;;;;5099640;28;20463;-76
2022/07/08 09:08:02;;;;;;;2.45;0.70;;;;;;;;;;5102007;28;20036;-76
2022/07/08 09:10:28;;;;;;;5.60;0.98;;;;;;;;;;5102728;27;20052;-76
2022/07/08 09:13:10;;;;;;;1.70;0.60;;;;;;;;;;5100490;28;20055;-76
2022/07/08 09:15:36;;;;;;;6.80;0.77;;;;;;;;;;5101922;27;20038;-76
2022/07/08 09:18:03;;;;;;;5.30;1.05;;;;;;;;;;5098819;27;20028;-77
2022/07/08 09:20:37;;;;;;;3.97;0.80;;;;;;;;;;5099489;28;20687;-76
2022/07/08 09:23:03;;;;;;;1.65;0.50;;;;;;;;;;5103166;27;20053;-76
2022/07/08 09:25:32;;;;;;;3.00;0.50;;;;;;;;;;5099100;27;20032;-76
2022/07/08 09:27:59;;;;;;;4.43;0.90;;;;;;;;;;5103291;28;20043;-76
2022/07/08 09:30:30;;;;;;;5.55;0.82;;;;;;;;;;5102886;27;20031;-76
2022/07/08 09:33:00;;;;;;;4.95;0.90;;;;;;;;;;5096594;28;20028;-76
2022/07/08 09:35:36;;;;;;;5.47;0.90;;;;;;;;;;5096512;27;20035;-76
2022/07/08 09:38:05;;;;;;;2.30;0.63;;;;;;;;;;5098398;28;20024;-76
2022/07/08 09:40:32;;;;;;;4.75;0.80;;;;;;;;;;5094558;28;20028;-76
2022/07/08 09:43:00;;;;;;;5.68;0.90;;;;;;;;;;5100058;27;20032;-76
2022/07/08 09:45:32;;;;;;;6.75;0.85;;;;;;;;;;5099839;27;20019;-76
2022/07/08 09:48:03;;;;;;;4.85;0.82;;;;;;;;;;5099871;27;22046;-76
2022/07/08 09:50:33;;;;;;;2.85;0.90;;;;;;;;;;5093998;27;20084;-76
2022/07/08 09:52:59;;;;;;;6.28;1.15;;;;;;;;;;5104037;27;20074;-76
2022/07/08 09:55:31;;;;;;;5.85;0.80;;;;;;;;;;5102712;27;20027;-76
2022/07/08 09:57:59;;;;;;;2.63;0.70;;;;;;;;;;5101322;28;20065;-76
2022/07/08 10:00:25;;;;;;;3.45;0.90;;;;;;;;;;5103403;28;20038;-76
2022/07/08 10:02:51;;;;;;;6.43;1.10;;;;;;;;;;5106813;27;20076;-76
2022/07/08 10:05:17;;;;;;;3.85;0.90;;;;;;;;;;5099995;28;20717;-76
2022/07/08 10:07:43;;;;;;;4.65;0.93;;;;;;;;;;5103704;27;20111;-76
2022/07/08 10:10:09;;;;;;;5.00;0.90;;;;;;;;;;5096999;28;20119;-76
2022/07/08 10:12:35;;;;;;;1.73;0.70;;;;;;;;;;5094991;28;20036;-77
2022/07/08 10:15:02;;;;;;;3.13;0.60;;;;;;;;;;5100826;28;20069;-76
2022/07/08 10:17:33;;;;;;;3.40;0.73;;;;;;;;;;5102267;27;20427;-76
2022/07/08 10:20:00;;;;;;;5.60;0.70;;;;;;;;;;5105323;27;20023;-76
2022/07/08 10:22:26;;;;;;;3.67;0.60;;;;;;;;;;5098783;28;20070;-76
2022/07/08 10:24:53;;;;;;;2.55;0.50;;;;;;;;;;5101610;28;20527;-76
2022/07/08 10:27:24;;;;;;;2.65;0.60;;;;;;;;;;5104700;27;20118;-76
2022/07/08 10:29:50;;;;;;;3.20;0.90;;;;;;;;;;5100147;28;20151;-76
2022/07/08 10:32:29;;;;;;;3.35;0.90;;;;;;;;;;5105061;27;20359;-76
2022/07/08 10:35:24;;;;;;;8.27;0.80;;;;;;;;;;5098443;27;20118;-76
2022/07/08 10:37:56;;;;;;;4.00;0.70;;;;;;;;;;5076385;28;20048;-76
2022/07/08 10:40:40;;;;;;;7.47;0.75;;;;;;;;;;5103730;27;20024;-76
2022/07/08 10:43:18;;;;;;;6.65;1.25;;;;;;;;;;5095726;28;20063;-77
2022/07/08 10:46:15;;;;;;;5.43;0.90;;;;;;;;;;5093933;28;20032;-76
2022/07/08 10:48:41;;;;;;;3.22;0.75;;;;;;;;;;5081325;28;20108;-77
2022/07/08 10:51:28;;;;;;;3.13;0.70;;;;;;;;;;5095949;27;20077;-76
2022/07/08 10:53:54;;;;;;;2.92;0.50;;;;;;;;;;5098664;28;20041;-76
2022/07/08 10:56:38;;;;;;;3.63;0.70;;;;;;;;;;5092363;28;20031;-76
2022/07/08 10:59:17;;;;;;;5.85;0.75;;;;;;;;;;5098695;28;20067;-77
2022/07/08 11:01:45;;;;;;;3.65;0.70;;;;;;;;;;5096657;28;20039;-77
2022/07/08 11:04:31;;;;;;;2.20;0.60;;;;;;;;;;5092977;27;20561;-77
2022/07/08 11:10:13;;;;;;;2.58;0.82;;;;;;;;;;5102832;28;20143;-76
2022/07/08 11:12:45;;;;;;;4.95;0.90;;;;;;;;;;5095619;27;20028;-76
2022/07/08 11:15:11;;;;;;;;;;;;;;;;;;5101362;28;20028;-77
2022/07/08 11:17:37;;;;;;;8.60;0.93;;;;;;;;;;5097064;27;19924;-76
2022/07/08 11:20:06;;;;;;;4.60;0.70;;;;;;;;;;5097745;28;20032;-76
2022/07/08 11:22:37;;;;;;;2.08;0.60;;;;;;;;;;5094422;28;20561;-77
2022/07/08 11:25:04;;;;;;;6.00;0.93;;;;;;;;;;5101022;27;20053;-76
2022/07/08 11:27:33;;;;;;;3.38;0.73;;;;;;;;;;5097778;28;20028;-76
2022/07/08 11:29:59;;;;;;;3.95;0.70;;;;;;;;;;5095532;27;20032;-76
2022/07/08 11:32:25;;;;;;;1.08;0.47;;;;;;;;;;5096924;28;20581;-76
2022/07/08 11:34:52;;;;;;;3.20;0.60;;;;;;;;;;5102850;27;20109;-76
2022/07/08 11:37:19;;;;;;;2.33;0.70;;;;;;;;;;5097437;28;20374;-76
2022/07/08 11:39:45;;;;;;;4.07;0.50;;;;;;;;;;5100383;28;20862;-77
2022/07/08 11:42:12;;;;;;;1.63;0.55;;;;;;;;;;5102251;28;20023;-76
2022/07/08 11:44:38;;;;;;;3.13;1.00;;;;;;;;;;5101264;28;20497;-77
2022/07/08 11:47:04;;;;;;;3.58;0.65;;;;;;;;;;5100452;28;20031;-76
2022/07/08 11:49:30;;;;;;;3.05;0.70;;;;;;;;;;5095159;28;20039;-76
2022/07/08 11:51:59;;;;;;;5.15;0.85;;;;;;;;;;5103679;28;20047;-76
2022/07/08 11:54:27;;;;;;;2.55;0.60;;;;;;;;;;5093074;28;20394;-76
2022/07/08 11:56:54;;;;;;;5.07;1.00;;;;;;;;;;5094792;28;20077;-76
2022/07/08 11:59:24;;;;;;;3.28;0.70;;;;;;;;;;5098848;28;20036;-76
2022/07/08 12:01:51;;;;;;;7.95;0.90;;;;;;;;;;5102665;28;20028;-77
2022/07/08 12:04:17;;;;;;;5.70;0.85;;;;;;;;;;5101138;28;20044;-76
2022/07/08 12:06:47;;;;;;;4.25;0.63;;;;;;;;;;5100298;28;20861;-77
2022/07/08 12:09:14;;;;;;;4.82;0.55;;;;;;;;;;5099113;28;20032;-76
2022/07/08 12:11:41;;;;;;;5.65;0.70;;;;;;;;;;5095848;28;20101;-76
2022/07/08 12:14:08;;;;;;;1.25;0.40;;;;;;;;;;5093182;28;20039;-76
2022/07/08 12:16:54;;;;;;;8.00;0.50;;;;;;;;;;5101485;28;20047;-76
2022/07/08 12:19:30;;;;;;;2.25;0.50;;;;;;;;;;5088838;28;20036;-76
2022/07/08 12:21:58;;;;;;;3.22;0.40;;;;;;;;;;5096886;28;20469;-77
2022/07/08 12:24:25;;;;;;;2.65;0.50;;;;;;;;;;5093180;28;20119;-76
2022/07/08 12:27:01;;;;;;;2.55;0.40;;;;;;;;;;5097709;28;20032;-76
2022/07/08 12:29:28;;;;;;;2.65;0.50;;;;;;;;;;5095307;28;20115;-76
2022/07/08 12:31:54;;;;;;;4.97;0.70;;;;;;;;;;5098182;28;20860;-77
2022/07/08 12:34:21;;;;;;;5.15;0.70;;;;;;;;;;5102990;27;20069;-76
2022/07/08 12:36:48;;;;;;;3.60;0.57;;;;;;;;;;5104246;27;20474;-77
2022/07/08 12:39:17;;;;;;;4.57;0.95;;;;;;;;;;5103710;28;20035;-77
2022/07/08 12:41:44;;;;;;;7.15;0.70;;;;;;;;;;5100943;27;20051;-77
2022/07/08 12:44:29;;;;;;;4.10;0.52;;;;;;;;;;5107314;27;20073;-77
2022/07/08 12:46:56;;;;;;;2.53;0.80;;;;;;;;;;5099187;28;20031;-76
2022/07/08 12:49:26;;;;;;;3.63;0.70;;;;;;;;;;5103038;27;20039;-76
2022/07/08 12:51:52;;;;;;;2.65;0.50;;;;;;;;;;5095177;28;20047;-77
2022/07/08 12:54:19;;;;;;;1.77;0.55;;;;;;;;;;5101979;28;20043;-77
2022/07/08 12:56:45;;;;;;;2.00;0.40;;;;;;;;;;5099462;27;20098;-77
2022/07/08 12:59:11;;;;;;;2.55;0.65;;;;;;;;;;5100222;28;20100;-77
2022/07/08 13:01:37;;;;;;;3.80;1.02;;;;;;;;;;5095186;28;20024;-77
2022/07/08 13:04:04;;;;;;;3.45;0.93;;;;;;;;;;5102043;27;20404;-76
2022/07/08 13:06:30;;;;;;;2.92;0.60;;;;;;;;;;5103116;27;20042;-77
2022/07/08 13:08:56;;;;;;;6.57;0.60;;;;;;;;;;5103188;27;20035;-76
2022/07/08 13:11:22;;;;;;;2.47;0.70;;;;;;;;;;5098844;28;20044;-76
2022/07/08 13:13:48;;;;;;;8.32;0.82;;;;;;;;;;5103292;27;20359;-76
2022/07/08 13:16:14;;;;;;;6.68;0.93;;;;;;;;;;5098810;28;20249;-76
2022/07/08 13:18:40;;;;;;;3.45;0.60;;;;;;;;;;5100152;27;20390;-77
2022/07/08 13:21:06;;;;;;;4.13;0.70;;;;;;;;;;5104719;27;20041;-76
2022/07/08 13:23:33;;;;;;;2.15;0.50;;;;;;;;;;5104224;28;20039;-76
2022/07/08 13:25:59;;;;;;;2.45;0.60;;;;;;;;;;5099707;27;20028;-77
2022/07/08 13:28:25;;;;;;;3.53;0.57;;;;;;;;;;5103487;27;20089;-77
2022/07/08 13:30:51;;;;;;;2.30;0.63;;;;;;;;;;5103345;28;20035;-76
2022/07/08 13:33:17;;;;;;;3.45;0.60;;;;;;;;;;5097312;28;20139;-76
2022/07/08 13:35:43;;;;;;;5.10;0.60;;;;;;;;;;5097740;27;20122;-77
2022/07/08 13:38:10;;;;;;;4.82;0.82;;;;;;;;;;5096737;28;20562;-77
2022/07/08 13:40:36;;;;;;;5.50;0.60;;;;;;;;;;5097224;27;20059;-77
2022/07/08 13:43:02;;;;;;;3.95;0.70;;;;;;;;;;5094410;27;20078;-76
2022/07/08 13:45:28;;;;;;;1.25;0.47;;;;;;;;;;5100967;27;20034;-76
2022/07/08 13:47:54;;;;;;;1.92;0.52;;;;;;;;;;5097767;27;20394;-77
2022/07/08 13:50:20;;;;;;;7.80;1.13;;;;;;;;;;5101249;28;20038;-76
2022/07/08 13:52:46;;;;;;;3.08;0.68;;;;;;;;;;5098617;28;20043;-77
2022/07/08 13:55:12;;;;;;;2.85;0.80;;;;;;;;;;5098704;27;20414;-76
2022/07/08 13:57:38;;;;;;;5.60;0.73;;;;;;;;;;5097317;28;20032;-77
2022/07/08 14:00:06;;;;;;;6.30;0.75;;;;;;;;;;5094723;28;20032;-77
2022/07/08 14:02:33;;;;;;;5.38;0.82;;;;;;;;;;5094922;28;20826;-76
2022/07/08 14:04:58;;;;;;;2.85;0.75;;;;;;;;;;5098405;27;20027;-76
2022/07/08 14:07:25;;;;;;;4.00;0.77;;;;;;;;;;5098564;27;20048;-76
2022/07/08 14:09:51;;;;;;;2.75;0.75;;;;;;;;;;5095437;27;20028;-77
2022/07/08 14:12:18;;;;;;;6.68;0.70;;;;;;;;;;5096241;28;20036;-76
2022/07/08 14:14:44;;;;;;;3.83;0.85;;;;;;;;;;5102576;27;20039;-76
2022/07/08 14:17:10;;;;;;;3.60;0.80;;;;;;;;;;5096859;28;20555;-77
2022/07/08 14:19:37;;;;;;;5.15;0.93;;;;;;;;;;5098559;28;20134;-76
2022/07/08 14:22:03;;;;;;;6.63;0.80;;;;;;;;;;5097838;28;20156;-76
2022/07/08 14:24:29;;;;;;;4.20;0.70;;;;;;;;;;5098967;27;20043;-76
2022/07/08 14:26:55;;;;;;;5.85;0.95;;;;;;;;;;5102273;28;20031;-76
2022/07/08 14:29:22;;;;;;;2.70;0.70;;;;;;;;;;5098131;27;20078;-76
2022/07/08 14:31:48;;;;;;;2.85;0.50;;;;;;;;;;5100951;27;20374;-76
2022/07/08 14:34:14;;;;;;;1.73;0.60;;;;;;;;;;5097795;27;20368;-76
2022/07/08 14:36:40;;;;;;;4.80;0.50;;;;;;;;;;5095746;28;20478;-77
2022/07/08 14:39:06;;;;;;;3.95;0.60;;;;;;;;;;5097266;28;20056;-77
2022/07/08 14:41:32;;;;;;;5.80;0.60;;;;;;;;;;5094918;28;20066;-76
2022/07/08 14:43:59;;;;;;;6.22;0.70;;;;;;;;;;5099541;27;20074;-76
2022/07/08 14:46:25;;;;;;;4.60;0.60;;;;;;;;;;5097882;27;20046;-76
2022/07/08 14:48:51;;;;;;;4.43;0.63;;;;;;;;;;5102479;27;20072;-76
2022/07/08 14:51:17;;;;;;;3.05;0.80;;;;;;;;;;5093887;27;20035;-76